Time;durP1;ratioP1;P1;durP2;ratioP2;P2;SDS_P1;SDS_P2;PMS_P1;PMS_P2;Temp;Humidity;BMP_temperature;BMP_pressure;BME280_temperature;BME280_humidity;BME280_pressure;Samples;Min_cycle;Max_cycle;Signal;HPM_P1;HPM_P2
2022/01/17 00:00:41;;;;;;;21.90;15.87;;;4.80;99.90;;;5.62;100.00;-19918.13;5111416;28;20306;-59
2022/01/17 00:03:10;;;;;;;22.77;16.50;;;4.80;99.90;;;5.68;100.00;-19920.16;5111545;28;20233;-61
2022/01/17 00:05:38;;;;;;;21.60;15.63;;;4.70;99.90;;;5.46;100.00;-19912.81;5112069;28;20216;-60
2022/01/17 00:08:06;;;;;;;22.70;16.00;;;4.70;99.90;;;5.44;100.00;-19911.97;5111338;28;20322;-59
2022/01/17 00:10:34;;;;;;;21.77;15.10;;;4.70;99.90;;;5.52;100.00;-19914.88;5111150;28;20234;-61
2022/01/17 00:13:04;;;;;;;21.37;15.73;;;4.70;99.90;;;5.66;100.00;-19919.47;5111285;28;20249;-61
2022/01/17 00:15:44;;;;;;;23.50;16.00;;;4.70;99.90;;;5.65;100.00;-19919.16;5111287;28;20304;-61
2022/01/17 00:20:54;;;;;;;23.27;16.30;;;4.80;99.90;;;5.64;100.00;-19918.78;5106811;28;20229;-60
2022/01/17 00:23:22;;;;;;;20.47;14.77;;;4.80;99.90;;;5.54;100.00;-19915.38;5111336;28;20203;-61
2022/01/17 00:25:50;;;;;;;22.50;15.73;;;4.80;99.90;;;5.58;100.00;-19916.91;5109892;28;20659;-59
2022/01/17 00:28:19;;;;;;;21.43;15.03;;;4.80;99.90;;;5.65;100.00;-19919.16;5110356;28;20316;-60
2022/01/17 00:30:47;;;;;;;22.47;15.10;;;4.80;99.90;;;5.56;100.00;-19916.06;5110291;28;20310;-59
2022/01/17 00:33:15;;;;;;;21.60;15.50;;;4.80;99.90;;;5.62;100.00;-19918.13;5110370;28;20229;-61
2022/01/17 00:35:44;;;;;;;22.57;16.17;;;4.80;99.90;;;5.71;100.00;-19921.19;5113514;28;20205;-63
2022/01/17 00:38:12;;;;;;;20.20;15.00;;;4.80;99.90;;;5.54;100.00;-19915.38;5113936;27;20800;-61
2022/01/17 00:40:41;;;;;;;18.73;14.57;;;4.80;99.90;;;5.59;100.00;-19917.25;5113923;28;20655;-59
2022/01/17 00:43:13;;;;;;;20.53;15.80;;;4.70;99.90;;;5.58;100.00;-19916.75;5113607;27;20304;-60
2022/01/17 00:45:44;;;;;;;20.00;14.70;;;4.70;99.90;;;5.58;100.00;-19916.75;5113974;27;20253;-60
2022/01/17 00:48:13;;;;;;;19.20;14.30;;;4.70;99.90;;;5.58;100.00;-19916.75;5113902;28;20226;-59
2022/01/17 00:50:42;;;;;;;21.73;14.43;;;4.80;99.90;;;5.69;100.00;-19920.50;5114042;28;20199;-59
2022/01/17 00:53:11;;;;;;;20.10;14.83;;;4.80;99.90;;;5.65;100.00;-19919.31;5113840;28;20306;-60
2022/01/17 00:55:41;;;;;;;22.07;15.07;;;4.80;99.90;;;5.81;100.00;-19924.78;5118548;27;20313;-60
2022/01/17 00:58:09;;;;;;;19.73;13.77;;;4.90;99.90;;;5.75;100.00;-19922.72;5113619;28;20762;-60
2022/01/17 01:00:40;;;;;;;18.50;13.90;;;4.90;99.90;;;5.73;100.00;-19922.03;5113717;28;20313;-62
2022/01/17 01:03:10;;;;;;;21.50;14.67;;;4.90;99.90;;;5.60;100.00;-19917.59;5113568;28;20183;-61
2022/01/17 01:05:38;;;;;;;19.47;14.17;;;4.90;99.90;;;5.69;100.00;-19920.69;5114512;28;20198;-60
2022/01/17 01:08:06;;;;;;;16.97;13.80;;;4.80;99.90;;;5.67;100.00;-19920.00;5113257;28;20251;-61
2022/01/17 01:10:34;;;;;;;22.80;14.77;;;4.90;99.90;;;5.75;100.00;-19922.56;5113424;28;20296;-59
2022/01/17 01:13:03;;;;;;;20.20;15.07;;;4.90;99.90;;;5.85;100.00;-19926.16;5113010;28;20219;-61
2022/01/17 01:15:57;;;;;;;19.40;14.13;;;4.90;99.90;;;5.78;100.00;-19923.75;5113011;28;20223;-62
2022/01/17 01:18:39;;;;;;;19.10;14.03;;;4.90;99.90;;;5.67;100.00;-19919.81;5112774;28;20218;-61
2022/01/17 01:21:42;;;;;;;18.43;14.37;;;4.90;99.90;;;5.68;100.00;-19920.34;5112993;28;20182;-60
2022/01/17 01:29:46;;;;;;;18.60;14.03;;;4.80;99.90;;;5.49;100.00;-19913.66;5113893;28;20186;-59
2022/01/17 01:32:19;;;;;;;16.37;14.00;;;4.70;99.90;;;5.65;100.00;-19919.31;5113777;28;20212;-60
2022/01/17 01:34:52;;;;;;;18.73;13.93;;;4.80;99.90;;;5.56;100.00;-19916.06;5113279;28;20230;-61
2022/01/17 01:37:21;;;;;;;18.40;13.83;;;4.80;99.90;;;5.56;100.00;-19916.25;5113122;28;20765;-61
2022/01/17 01:39:51;;;;;;;16.37;12.77;;;4.80;99.90;;;5.56;100.00;-19916.06;5113244;28;20271;-61
2022/01/17 01:42:20;;;;;;;16.57;12.53;;;4.80;99.90;;;5.66;100.00;-19919.66;5113279;27;20303;-60
2022/01/17 01:44:51;;;;;;;15.33;12.40;;;4.80;99.90;;;5.68;100.00;-19920.34;5113153;28;20314;-61
2022/01/17 01:47:25;;;;;;;17.97;12.53;;;4.90;99.90;;;5.66;100.00;-19919.66;5112405;28;20246;-60
2022/01/17 01:49:55;;;;;;;16.03;12.97;;;4.80;99.90;;;5.76;100.00;-19922.91;5112935;28;20223;-60
2022/01/17 01:52:23;;;;;;;15.97;12.13;;;4.90;99.90;;;5.79;100.00;-19924.09;5128912;27;20256;-60
2022/01/17 01:54:51;;;;;;;16.03;12.17;;;4.90;99.90;;;5.72;100.00;-19921.69;5127002;27;20233;-60
2022/01/17 01:57:19;;;;;;;16.33;12.40;;;4.90;99.90;;;5.65;100.00;-19919.31;5112713;28;20237;-60
2022/01/17 01:59:47;;;;;;;16.17;12.40;;;4.90;99.90;;;5.65;100.00;-19919.16;5113364;28;20304;-60
2022/01/17 02:02:16;;;;;;;18.40;12.97;;;4.90;99.90;;;5.73;100.00;-19921.88;5113051;28;20246;-61
2022/01/17 02:04:44;;;;;;;18.37;13.70;;;4.90;99.90;;;5.56;100.00;-19916.25;5112893;28;20276;-59
2022/01/17 02:07:15;;;;;;;17.67;13.50;;;4.90;99.90;;;5.47;100.00;-19912.97;5112636;28;20237;-60
2022/01/17 02:09:43;;;;;;;17.10;13.13;;;4.80;99.90;;;5.47;100.00;-19913.16;5112527;28;20232;-60
2022/01/17 02:12:13;;;;;;;16.03;13.07;;;4.70;99.90;;;5.54;100.00;-19915.56;5113191;28;20229;-60
2022/01/17 02:14:42;;;;;;;18.17;13.93;;;4.70;99.90;;;5.47;100.00;-19913.16;5113087;28;20200;-60
2022/01/17 02:17:10;;;;;;;18.03;13.57;;;4.70;99.90;;;5.50;100.00;-19914.19;5112739;27;20223;-60
2022/01/17 02:19:44;;;;;;;17.30;12.60;;;4.80;99.90;;;5.54;100.00;-19915.56;5112597;28;20231;-61
2022/01/17 02:22:15;;;;;;;17.50;13.03;;;4.70;99.90;;;5.51;100.00;-19914.34;5112446;28;20226;-61
2022/01/17 02:24:44;;;;;;;16.53;13.13;;;4.70;99.90;;;5.52;100.00;-19914.69;5112787;28;20215;-61
2022/01/17 02:27:12;;;;;;;15.47;12.90;;;4.70;99.90;;;5.46;100.00;-19912.81;5114009;28;20233;-60
2022/01/17 02:29:40;;;;;;;16.97;12.73;;;4.70;99.90;;;5.49;100.00;-19913.66;5114519;28;20265;-60
2022/01/17 02:32:09;;;;;;;16.20;12.73;;;4.70;99.90;;;5.56;100.00;-19916.06;5112551;28;20636;-61
2022/01/17 02:34:41;;;;;;;15.67;11.57;;;4.80;99.90;;;5.54;100.00;-19915.56;5112484;28;20309;-59
2022/01/17 02:37:10;;;;;;;17.73;12.70;;;4.80;99.90;;;5.50;100.00;-19914.00;5112413;28;20314;-60
2022/01/17 02:39:40;;;;;;;15.87;11.70;;;4.80;99.90;;;5.68;100.00;-19920.16;5111894;28;20241;-60
2022/01/17 02:42:10;;;;;;;16.47;11.40;;;4.80;99.90;;;5.83;100.00;-19925.47;5112293;28;20222;-60
2022/01/17 02:44:44;;;;;;;15.70;11.40;;;4.80;99.90;;;5.73;100.00;-19921.88;5111954;28;20302;-60
2022/01/17 02:47:17;;;;;;;14.43;10.93;;;4.90;99.90;;;5.71;100.00;-19921.19;5117461;27;20254;-59
2022/01/17 02:49:45;;;;;;;13.50;10.57;;;4.80;99.90;;;5.70;100.00;-19921.03;5132454;27;20291;-59
2022/01/17 02:52:13;;;;;;;13.33;10.47;;;4.90;99.90;;;5.78;100.00;-19923.59;5115387;27;20309;-59
2022/01/17 02:54:43;;;;;;;13.50;9.93;;;4.90;99.90;;;5.75;100.00;-19922.56;5112168;27;20236;-60
2022/01/17 02:57:11;;;;;;;11.97;9.83;;;4.90;99.90;;;5.98;100.00;-19930.59;5111722;28;20630;-60
2022/01/17 02:59:39;;;;;;;11.07;8.97;;;5.00;99.90;;;5.88;100.00;-19927.00;5112001;28;20213;-59
2022/01/17 03:02:07;;;;;;;13.83;9.67;;;5.10;99.90;;;5.83;100.00;-19925.31;5111809;28;20234;-62
2022/01/17 03:04:35;;;;;;;14.50;10.30;;;5.00;99.90;;;5.90;100.00;-19927.84;5111626;28;20280;-60
2022/01/17 03:07:03;;;;;;;12.70;9.37;;;5.00;99.90;;;5.86;100.00;-19926.50;5111454;28;20733;-60
2022/01/17 03:09:41;;;;;;;13.40;9.70;;;5.00;99.90;;;5.91;100.00;-19928.03;5111357;28;20219;-60
2022/01/17 03:12:12;;;;;;;12.43;9.60;;;5.00;99.90;;;6.03;100.00;-19932.13;5111073;28;20325;-61
2022/01/17 03:14:40;;;;;;;13.33;10.10;;;5.00;99.90;;;6.02;100.00;-19931.78;5111429;28;20223;-60
2022/01/17 03:17:08;;;;;;;11.80;8.87;;;5.10;99.90;;;6.06;100.00;-19933.16;5110653;28;20262;-60
2022/01/17 03:19:36;;;;;;;12.83;9.03;;;5.10;99.90;;;6.03;100.00;-19932.13;5111575;28;20594;-62
2022/01/17 03:22:04;;;;;;;12.60;8.73;;;5.20;99.90;;;5.96;100.00;-19929.75;5111374;28;20713;-61
2022/01/17 03:24:32;;;;;;;12.40;9.00;;;5.20;99.90;;;5.95;100.00;-19929.41;5111338;28;20423;-60
2022/01/17 03:27:00;;;;;;;12.63;8.80;;;5.10;99.90;;;6.06;100.00;-19933.16;5110953;28;20297;-61
2022/01/17 03:29:30;;;;;;;11.37;8.93;;;5.20;99.90;;;6.04;100.00;-19932.47;5111522;28;20220;-60
2022/01/17 03:31:58;;;;;;;11.23;8.77;;;5.20;99.90;;;6.01;100.00;-19931.63;5111053;28;20325;-61
2022/01/17 03:34:26;;;;;;;13.03;8.80;;;5.20;99.90;;;5.99;100.00;-19930.75;5110843;28;20219;-61
2022/01/17 03:36:54;;;;;;;12.57;8.87;;;5.10;99.90;;;5.91;100.00;-19928.03;5111242;28;20234;-60
2022/01/17 03:39:22;;;;;;;11.97;8.60;;;5.10;99.90;;;5.93;100.00;-19928.88;5110618;28;20246;-60
2022/01/17 03:41:50;;;;;;;10.07;7.90;;;5.10;99.90;;;5.82;100.00;-19925.13;5110808;28;20249;-61
2022/01/17 03:44:19;;;;;;;10.57;8.53;;;5.10;99.90;;;6.00;100.00;-19931.13;5123703;27;20214;-60
2022/01/17 03:46:48;;;;;;;10.23;8.03;;;5.10;99.90;;;5.85;100.00;-19925.97;5129290;27;20299;-62
2022/01/17 03:49:17;;;;;;;10.13;7.40;;;5.10;99.90;;;6.05;100.00;-19932.81;5110277;28;20733;-60
2022/01/17 03:51:44;;;;;;;10.97;8.27;;;5.10;99.90;;;5.91;100.00;-19928.03;5097623;28;20321;-59
2022/01/17 03:54:13;;;;;;;10.33;7.93;;;5.10;99.90;;;5.89;100.00;-19927.53;5090054;28;20247;-64
2022/01/17 03:56:41;;;;;;;9.77;7.60;;;5.10;99.90;;;5.86;100.00;-19926.31;5107419;28;20207;-61
2022/01/17 03:59:09;;;;;;;10.23;7.63;;;5.10;99.90;;;5.99;100.00;-19930.75;5109906;28;20295;-60
2022/01/17 04:01:37;;;;;;;9.30;7.43;;;5.10;99.90;;;6.06;100.00;-19933.16;5109892;28;20332;-60
2022/01/17 04:04:07;;;;;;;8.60;7.10;;;5.20;99.90;;;6.07;100.00;-19933.50;5110134;28;20223;-60
2022/01/17 04:06:35;;;;;;;9.73;7.13;;;5.10;99.90;;;5.88;100.00;-19927.00;5110116;28;20295;-60
2022/01/17 04:09:04;;;;;;;9.80;7.23;;;5.10;99.90;;;6.05;100.00;-19932.97;5110157;28;20198;-61
2022/01/17 04:11:32;;;;;;;8.27;6.63;;;5.20;99.90;;;6.15;100.00;-19936.41;5110604;28;20609;-63
2022/01/17 04:14:00;;;;;;;8.40;6.73;;;5.20;99.90;;;6.13;100.00;-19935.56;5110305;28;20231;-59
2022/01/17 04:16:28;;;;;;;8.47;7.10;;;5.20;99.90;;;6.13;100.00;-19935.56;5109945;28;20233;-60
2022/01/17 04:18:57;;;;;;;8.90;6.50;;;5.20;99.90;;;6.07;100.00;-19933.50;5110466;28;20247;-60
2022/01/17 04:21:30;;;;;;;8.73;6.87;;;5.20;99.90;;;5.91;100.00;-19928.22;5110506;28;20272;-60
2022/01/17 04:23:59;;;;;;;9.90;7.50;;;5.20;99.90;;;6.22;100.00;-19938.78;5109932;28;20240;-61
2022/01/17 04:26:27;;;;;;;9.97;7.33;;;5.30;99.90;;;6.11;100.00;-19934.88;5110836;28;20223;-59
2022/01/17 04:28:56;;;;;;;9.17;7.17;;;5.30;99.90;;;6.19;100.00;-19937.78;5110142;28;20298;-59
2022/01/17 04:31:24;;;;;;;10.30;6.90;;;5.30;99.90;;;6.11;100.00;-19934.88;5110216;28;20226;-60
2022/01/17 04:33:52;;;;;;;10.90;7.63;;;5.30;99.90;;;6.18;100.00;-19937.25;5110445;28;20226;-60
2022/01/17 04:36:20;;;;;;;8.87;6.80;;;5.30;99.90;;;6.22;100.00;-19938.63;5110459;28;20605;-59
2022/01/17 04:38:50;;;;;;;8.57;6.67;;;5.30;99.90;;;6.15;100.00;-19936.41;5111308;28;20309;-60
2022/01/17 04:41:19;;;;;;;10.10;7.10;;;5.30;99.90;;;6.05;100.00;-19932.97;5128891;28;20245;-59
2022/01/17 04:45:06;;;;;;;9.03;6.30;;;5.30;99.90;;;6.29;100.00;-19940.84;5122301;27;20959;-60
2022/01/17 04:46:45;;;;;;;9.80;6.67;;;5.30;99.90;;;6.34;100.00;-19942.56;5109870;28;20241;-60
2022/01/17 04:49:14;;;;;;;10.13;6.23;;;5.40;99.90;;;6.24;100.00;-19939.31;5110193;28;20674;-61
2022/01/17 04:51:42;;;;;;;7.53;6.30;;;5.40;99.90;;;6.22;100.00;-19938.47;5097568;28;20342;-61
2022/01/17 04:54:35;;;;;;;7.53;6.07;;;5.30;99.90;;;6.18;100.00;-19937.25;5089707;28;20499;-60
2022/01/17 04:57:04;;;;;;;8.53;5.90;;;5.30;99.90;;;6.25;100.00;-19939.66;5089466;28;20731;-60
2022/01/17 04:59:32;;;;;;;10.17;6.57;;;5.30;99.90;;;6.20;100.00;-19937.94;5089787;28;20267;-59
2022/01/17 05:02:00;;;;;;;8.93;6.03;;;5.30;99.90;;;6.21;100.00;-19938.28;5092630;28;20223;-62
2022/01/17 05:04:28;;;;;;;11.30;5.60;;;5.40;99.90;;;6.16;100.00;-19936.75;5109978;28;20226;-60
2022/01/17 05:06:56;;;;;;;6.73;5.03;;;5.30;99.90;;;6.22;100.00;-19938.63;5110010;28;20238;-62
2022/01/17 05:09:26;;;;;;;7.93;4.70;;;5.30;99.90;;;6.22;100.00;-19938.63;5110520;28;20304;-63
2022/01/17 05:11:54;;;;;;;6.67;4.73;;;5.30;99.90;;;6.24;100.00;-19939.31;5110436;28;20203;-60
2022/01/17 05:14:22;;;;;;;7.70;5.00;;;5.40;99.90;;;6.29;100.00;-19940.84;5110700;28;20231;-60
2022/01/17 05:16:56;;;;;;;5.87;4.17;;;5.40;99.90;;;6.30;100.00;-19941.19;5109690;28;20300;-61
2022/01/17 05:22:10;;;;;;;8.77;4.77;;;5.50;99.90;;;6.57;100.00;-19950.59;5111865;28;20222;-60
2022/01/17 05:24:39;;;;;;;6.10;4.70;;;5.60;99.90;;;6.43;100.00;-19945.63;5113418;27;20679;-62
2022/01/17 05:27:07;;;;;;;8.10;5.40;;;5.60;99.90;;;6.70;100.00;-19955.03;5112715;28;20639;-60
2022/01/17 05:29:35;;;;;;;7.43;5.00;;;5.70;99.90;;;6.65;100.00;-19953.31;5113865;28;20666;-61
2022/01/17 05:32:05;;;;;;;5.90;4.77;;;5.70;99.90;;;6.69;100.00;-19954.53;5112665;28;20213;-63
2022/01/17 05:34:34;;;;;;;8.50;5.07;;;5.80;99.90;;;6.48;100.00;-19947.50;5113286;28;20249;-61
2022/01/17 05:37:03;;;;;;;5.90;4.77;;;5.70;99.90;;;6.72;100.00;-19955.53;5127483;27;20252;-61
2022/01/17 05:39:31;;;;;;;8.07;5.13;;;5.70;99.90;;;6.57;100.00;-19950.41;5133954;27;20229;-64
2022/01/17 05:42:01;;;;;;;6.33;5.00;;;5.70;99.90;;;6.67;100.00;-19953.84;5133756;27;20305;-64
2022/01/17 05:44:29;;;;;;;9.77;6.00;;;5.70;99.90;;;6.50;100.00;-19948.03;5120441;27;20297;-63
2022/01/17 05:46:57;;;;;;;6.40;4.07;;;5.70;99.90;;;6.52;100.00;-19948.88;5113073;27;20250;-62
2022/01/17 05:49:25;;;;;;;5.33;4.30;;;5.70;99.90;;;6.49;100.00;-19947.69;5112975;27;20850;-62
2022/01/17 05:51:53;;;;;;;9.60;3.90;;;5.70;99.90;;;6.54;100.00;-19949.56;5098597;28;20248;-62
2022/01/17 05:54:21;;;;;;;4.90;3.60;;;5.70;99.90;;;6.58;100.00;-19950.94;5092968;28;20219;-62
2022/01/17 05:56:51;;;;;;;6.30;3.00;;;5.70;99.90;;;6.64;100.00;-19952.81;5111062;28;20196;-63
2022/01/17 05:59:21;;;;;;;3.77;2.93;;;5.70;99.90;;;6.67;100.00;-19954.00;5113000;28;20207;-61
2022/01/17 06:01:49;;;;;;;5.00;2.93;;;5.80;99.90;;;6.62;100.00;-19952.13;5112586;28;20255;-62
2022/01/17 06:04:17;;;;;;;3.57;2.30;;;5.80;99.90;;;6.62;100.00;-19952.31;5112614;28;20223;-63
2022/01/17 06:06:45;;;;;;;3.03;1.90;;;5.80;99.90;;;6.63;100.00;-19952.63;5112487;27;20726;-63
2022/01/17 06:09:13;;;;;;;6.20;2.00;;;5.80;99.90;;;6.67;100.00;-19953.84;5112457;28;20233;-62
2022/01/17 06:11:41;;;;;;;3.23;1.87;;;5.80;99.90;;;6.61;100.00;-19951.78;5113185;28;20290;-63
2022/01/17 06:14:15;;;;;;;5.07;1.53;;;5.80;99.90;;;6.59;100.00;-19951.09;5112459;28;20253;-63
2022/01/17 06:16:46;;;;;;;4.00;1.80;;;5.80;99.90;;;6.75;100.00;-19956.56;5112166;27;20223;-62
2022/01/17 06:19:15;;;;;;;2.80;1.57;;;5.80;99.90;;;6.53;100.00;-19949.22;5112573;28;20224;-64
2022/01/17 06:21:44;;;;;;;2.87;1.50;;;5.80;99.90;;;6.75;100.00;-19956.56;5112741;28;20242;-63
2022/01/17 06:24:17;;;;;;;4.00;1.50;;;5.80;99.90;;;6.76;100.00;-19957.09;5112813;28;20281;-64
2022/01/17 06:26:45;;;;;;;6.10;1.10;;;5.90;99.90;;;6.83;100.00;-19959.47;5113143;28;20716;-63
2022/01/17 06:29:15;;;;;;;5.37;2.03;;;5.90;99.90;;;6.72;100.00;-19955.53;5111772;28;20306;-63
2022/01/17 06:31:46;;;;;;;4.07;1.50;;;5.80;99.90;;;6.69;100.00;-19954.53;5112795;28;20257;-63
2022/01/17 06:34:14;;;;;;;5.83;1.70;;;5.80;99.90;;;6.71;100.00;-19955.38;5132697;27;20837;-63
2022/01/17 06:36:42;;;;;;;3.23;1.30;;;5.80;99.90;;;6.71;100.00;-19955.38;5132985;27;20275;-65
2022/01/17 06:39:12;;;;;;;3.70;1.07;;;5.80;99.90;;;6.71;100.00;-19955.22;5133028;27;20362;-63
2022/01/17 06:41:41;;;;;;;4.03;1.43;;;5.80;99.90;;;6.70;100.00;-19954.84;5133785;27;20231;-64
2022/01/17 06:44:09;;;;;;;5.23;1.70;;;5.80;99.90;;;6.71;100.00;-19955.22;5121684;27;20662;-63
2022/01/17 06:46:37;;;;;;;5.33;1.63;;;5.80;99.90;;;6.69;100.00;-19954.69;5112612;27;20310;-63
2022/01/17 06:49:06;;;;;;;4.30;1.30;;;5.80;99.90;;;6.64;100.00;-19952.97;5112556;28;20253;-63
2022/01/17 06:51:35;;;;;;;3.57;1.30;;;5.80;99.90;;;6.57;100.00;-19950.59;5100939;28;20277;-63
2022/01/17 06:54:03;;;;;;;5.37;2.40;;;5.80;99.90;;;6.67;100.00;-19954.00;5091761;28;20672;-64
2022/01/17 06:56:32;;;;;;;6.80;1.77;;;5.80;99.90;;;6.62;100.00;-19952.31;5108205;28;20433;-62
2022/01/17 06:59:00;;;;;;;3.37;1.40;;;5.80;99.90;;;6.65;100.00;-19953.16;5112657;28;20230;-63
2022/01/17 07:01:28;;;;;;;4.30;1.13;;;5.80;99.90;;;6.58;100.00;-19950.94;5112833;28;20254;-63
2022/01/17 07:03:56;;;;;;;3.50;1.50;;;5.80;99.90;;;6.59;100.00;-19951.28;5114081;28;20223;-63
2022/01/17 07:06:25;;;;;;;5.13;1.60;;;5.70;99.90;;;6.60;100.00;-19951.63;5114502;28;20220;-62
2022/01/17 07:08:53;;;;;;;5.03;1.80;;;5.80;99.90;;;6.61;100.00;-19951.97;5113098;28;20295;-63
2022/01/17 07:11:21;;;;;;;7.27;1.50;;;5.80;99.90;;;6.68;100.00;-19954.34;5112603;28;20708;-62
2022/01/17 07:13:49;;;;;;;5.40;1.50;;;5.80;99.90;;;6.68;100.00;-19954.19;5111945;28;20718;-62
2022/01/17 07:16:18;;;;;;;3.93;1.30;;;5.80;99.90;;;6.71;100.00;-19955.38;5112042;28;20306;-63
2022/01/17 07:18:46;;;;;;;4.30;1.33;;;5.80;99.90;;;6.72;100.00;-19955.53;5112171;28;20226;-61
2022/01/17 07:21:14;;;;;;;5.07;1.50;;;5.80;99.90;;;6.74;100.00;-19956.41;5111755;28;20249;-63
2022/01/17 07:23:43;;;;;;;6.03;1.77;;;5.80;99.90;;;6.81;100.00;-19958.63;5112735;28;20286;-62
2022/01/17 07:26:11;;;;;;;4.57;1.60;;;5.90;99.90;;;6.78;100.00;-19957.75;5111679;28;20219;-63
2022/01/17 07:28:39;;;;;;;3.50;1.53;;;5.90;99.90;;;6.60;100.00;-19951.63;5119104;27;20302;-63
2022/01/17 07:31:07;;;;;;;5.30;1.67;;;5.80;99.90;;;6.58;100.00;-19950.94;5132282;27;20321;-63
2022/01/17 07:33:37;;;;;;;5.93;1.70;;;5.80;99.90;;;6.76;100.00;-19957.09;5132309;27;20301;-64
2022/01/17 07:36:06;;;;;;;5.73;1.80;;;5.80;99.90;;;6.72;100.00;-19955.53;5132051;27;20744;-64
2022/01/17 07:38:36;;;;;;;4.77;1.40;;;5.80;99.90;;;6.77;100.00;-19957.44;5132237;27;20249;-66
2022/01/17 07:41:06;;;;;;;7.07;1.80;;;5.90;99.90;;;6.64;100.00;-19952.97;5114606;27;20227;-69
2022/01/17 07:43:54;;;;;;;7.70;1.93;;;5.80;99.90;;;6.70;100.00;-19954.84;5110099;28;20690;-63
2022/01/17 07:46:25;;;;;;;5.30;1.90;;;5.80;99.90;;;6.72;100.00;-19955.53;5111339;28;20302;-64
2022/01/17 07:49:08;;;;;;;5.30;1.80;;;5.80;99.90;;;6.70;100.00;-19954.84;5111562;28;20246;-63
2022/01/17 07:51:43;;;;;;;6.53;2.00;;;5.80;99.90;;;6.59;100.00;-19951.28;5099650;28;20229;-64
2022/01/17 07:54:15;;;;;;;4.67;1.63;;;5.80;99.90;;;6.59;100.00;-19951.09;5088176;28;20219;-64
2022/01/17 07:56:47;;;;;;;5.33;2.00;;;5.80;99.90;;;6.64;100.00;-19952.81;5109066;28;20183;-65
2022/01/17 07:59:15;;;;;;;7.53;1.47;;;5.80;99.90;;;6.42;100.00;-19945.47;5111263;28;20258;-63
2022/01/17 08:01:44;;;;;;;6.57;1.50;;;5.70;99.90;;;6.51;100.00;-19948.38;5110808;28;20756;-63
2022/01/17 08:04:12;;;;;;;7.00;1.83;;;5.70;99.90;;;6.55;100.00;-19949.91;5110734;28;20318;-61
2022/01/17 08:06:41;;;;;;;7.00;1.50;;;5.70;99.90;;;6.66;100.00;-19953.66;5108699;28;20306;-61
2022/01/17 08:09:16;;;;;;;5.50;2.57;;;5.70;99.90;;;6.70;100.00;-19955.03;5107516;28;20777;-62
2022/01/17 08:12:08;;;;;;;11.70;1.83;;;5.80;99.90;;;6.79;100.00;-19958.13;5109661;28;20659;-63
2022/01/17 08:14:39;;;;;;;6.03;1.90;;;5.80;99.90;;;6.88;100.00;-19961.19;5102973;28;20217;-62
2022/01/17 08:17:08;;;;;;;6.20;1.40;;;5.90;99.90;;;6.79;100.00;-19957.94;5107523;28;20714;-63
2022/01/17 08:19:36;;;;;;;5.77;1.50;;;5.90;99.90;;;6.84;100.00;-19959.66;5107512;28;20242;-61
2022/01/17 08:22:07;;;;;;;6.77;1.70;;;5.90;99.90;;;6.84;100.00;-19959.66;5106727;28;20656;-61
2022/01/17 08:24:36;;;;;;;7.17;1.70;;;5.90;99.90;;;6.80;100.00;-19958.44;5112005;28;20327;-61
2022/01/17 08:27:05;;;;;;;7.33;1.50;;;5.90;99.90;;;6.91;100.00;-19962.03;5127856;27;20769;-62
2022/01/17 08:29:34;;;;;;;4.90;1.70;;;6.00;99.90;;;6.82;100.00;-19958.97;5128456;28;20198;-62
2022/01/17 08:32:05;;;;;;;5.77;1.60;;;6.00;99.90;;;6.81;100.00;-19958.78;5128398;27;20435;-61
2022/01/17 08:34:34;;;;;;;3.70;1.13;;;6.00;99.90;;;6.81;100.00;-19958.63;5127644;27;20686;-61
2022/01/17 08:37:03;;;;;;;7.73;1.63;;;6.00;99.90;;;6.73;100.00;-19955.88;5113033;28;20729;-61
2022/01/17 08:39:32;;;;;;;6.57;2.03;;;5.90;99.90;;;6.83;100.00;-19959.31;5107342;28;20230;-62
2022/01/17 08:42:06;;;;;;;4.70;1.30;;;5.90;99.90;;;6.69;100.00;-19954.69;5107236;28;20227;-62
2022/01/17 08:44:36;;;;;;;4.00;1.37;;;5.90;99.90;;;6.72;100.00;-19955.53;5107649;28;20244;-61
2022/01/17 08:47:05;;;;;;;7.87;1.37;;;5.90;99.90;;;6.74;100.00;-19956.41;5106502;28;20222;-66
2022/01/17 08:49:34;;;;;;;6.03;2.00;;;5.90;99.90;;;6.79;100.00;-19958.13;5107079;28;20245;-67
2022/01/17 08:52:02;;;;;;;6.83;1.40;;;5.90;99.90;;;6.76;100.00;-19956.91;5091654;28;20539;-67
2022/01/17 08:54:30;;;;;;;7.50;1.43;;;5.90;99.90;;;6.70;100.00;-19954.84;5086844;28;20243;-65
2022/01/17 08:56:58;;;;;;;2.43;1.23;;;5.90;99.90;;;6.87;100.00;-19960.66;5109445;28;20738;-65
2022/01/17 08:59:28;;;;;;;5.73;1.63;;;5.90;99.90;;;6.88;100.00;-19961.00;5111414;28;20306;-63
2022/01/17 09:01:58;;;;;;;3.20;1.10;;;6.00;99.90;;;6.89;100.00;-19961.34;5110778;27;20269;-60
2022/01/17 09:04:26;;;;;;;2.07;1.20;;;6.00;99.90;;;6.92;100.00;-19962.38;5110563;28;20722;-63
2022/01/17 09:06:55;;;;;;;5.60;1.70;;;6.00;99.90;;;6.91;100.00;-19962.22;5110736;28;20222;-63
2022/01/17 09:09:23;;;;;;;4.03;1.30;;;6.00;99.90;;;6.91;100.00;-19962.03;5110543;28;20638;-63
2022/01/17 09:11:51;;;;;;;3.97;1.10;;;6.00;99.90;;;6.84;100.00;-19959.81;5110652;28;20210;-64
2022/01/17 09:14:21;;;;;;;3.67;1.10;;;6.00;99.90;;;6.84;100.00;-19959.81;5111949;28;20184;-73
2022/01/17 09:16:49;;;;;;;2.33;1.13;;;5.90;99.90;;;6.90;100.00;-19961.69;5110806;28;20262;-63
2022/01/17 09:19:19;;;;;;;1.90;0.93;;;6.00;99.90;;;6.94;100.00;-19963.25;5110369;28;20802;-63
2022/01/17 09:21:47;;;;;;;4.47;1.10;;;6.00;99.90;;;6.79;100.00;-19958.13;5110006;28;20276;-64
2022/01/17 09:24:15;;;;;;;4.93;1.30;;;6.00;99.90;;;6.85;100.00;-19960.16;5111118;28;20219;-62
2022/01/17 09:26:44;;;;;;;4.80;1.07;;;6.00;99.90;;;6.79;100.00;-19958.13;5111326;28;20210;-62
2022/01/17 09:29:13;;;;;;;1.47;1.00;;;6.00;99.90;;;6.65;100.00;-19953.31;5110297;28;20328;-62
2022/01/17 09:31:46;;;;;;;5.50;1.27;;;6.00;99.90;;;6.79;100.00;-19958.13;5110028;28;20223;-59
2022/01/17 09:34:14;;;;;;;3.90;1.33;;;5.90;99.90;;;6.84;100.00;-19959.66;5110791;28;20247;-64
2022/01/17 09:36:44;;;;;;;1.53;1.00;;;6.00;99.90;;;6.84;100.00;-19959.66;5110158;27;20254;-66
2022/01/17 09:39:12;;;;;;;3.00;1.00;;;6.00;99.90;;;6.83;100.00;-19959.47;5110517;28;20227;-66
2022/01/17 09:41:40;;;;;;;2.40;1.40;;;6.00;99.90;;;6.84;100.00;-19959.81;5110305;28;20310;-64
2022/01/17 09:44:09;;;;;;;3.77;0.93;;;6.00;99.90;;;6.79;100.00;-19958.13;5110567;28;20231;-63
2022/01/17 09:46:43;;;;;;;2.33;1.00;;;6.00;99.90;;;6.90;100.00;-19961.88;5110076;28;20227;-64
2022/01/17 09:49:21;;;;;;;3.57;1.10;;;6.00;99.90;;;7.02;100.00;-19965.97;5110266;28;20261;-61
2022/01/17 09:52:06;;;;;;;3.57;1.00;;;6.10;99.90;;;7.09;100.00;-19968.38;5096363;28;20256;-64
2022/01/17 09:54:37;;;;;;;2.87;0.90;;;6.10;99.90;;;7.07;100.00;-19967.50;5090044;28;20255;-64
2022/01/17 09:57:08;;;;;;;4.13;0.97;;;6.20;99.90;;;7.16;100.00;-19970.59;5089431;28;20204;-67
2022/01/17 09:59:40;;;;;;;3.20;1.10;;;6.20;99.90;;;7.18;100.00;-19971.28;5090519;28;20646;-60
2022/01/17 10:02:11;;;;;;;3.53;1.03;;;6.30;99.90;;;7.29;100.00;-19975.03;5089167;28;20334;-62
2022/01/17 10:04:40;;;;;;;3.63;1.20;;;6.30;99.90;;;7.24;100.00;-19973.50;5089993;28;20281;-60
2022/01/17 10:07:09;;;;;;;3.53;1.00;;;6.30;99.90;;;7.21;100.00;-19972.47;5088080;28;20628;-61
2022/01/17 10:09:40;;;;;;;4.43;1.30;;;6.30;99.90;;;7.29;100.00;-19975.19;5089688;28;20224;-58
2022/01/17 10:12:12;;;;;;;3.63;1.07;;;6.40;99.90;;;7.28;100.00;-19974.69;5088777;28;20188;-65
2022/01/17 10:14:44;;;;;;;1.40;0.90;;;6.40;99.90;;;7.21;100.00;-19972.47;5104473;28;20226;-63
2022/01/17 10:17:16;;;;;;;3.97;1.17;;;6.40;99.90;;;7.25;100.00;-19973.84;5114420;27;20641;-66
2022/01/17 10:20:00;;;;;;;2.83;1.20;;;6.40;99.90;;;7.29;100.00;-19975.19;5130329;27;20620;-66
2022/01/17 10:22:41;;;;;;;3.03;1.10;;;6.40;99.90;;;7.27;100.00;-19974.50;5130038;27;20301;-66
2022/01/17 10:25:22;;;;;;;2.50;1.00;;;6.30;99.90;;;7.28;100.00;-19974.69;5130079;27;20309;-61
2022/01/17 10:28:14;;;;;;;3.23;1.40;;;6.40;99.90;;;7.26;100.00;-19974.19;5129419;27;20221;-65
2022/01/17 10:36:20;;;;;;;2.10;0.90;;;6.40;99.90;;;7.29;100.00;-19975.19;5108806;28;20618;-66
2022/01/17 10:39:06;;;;;;;3.37;1.00;;;6.40;99.90;;;7.40;100.00;-19978.78;5110134;28;20199;-65
2022/01/17 10:41:34;;;;;;;4.97;1.00;;;6.50;99.90;;;7.38;100.00;-19978.09;5108861;28;20285;-63
2022/01/17 10:44:02;;;;;;;2.70;0.83;;;6.40;99.90;;;7.37;100.00;-19977.75;5109419;28;20310;-63